Latest Weather Observations for Mount Wellington

IDT60801

Issued at 2:05 pm EST Wednesday 24 September 2014 (issued every 30 minutes, with the page automatically refreshed every 10 minutes)

About weather observations | Map of weather stations | Latest weather observations for TAS | Other Formats
Station Details ID: 094087 Name: MOUNT WELLINGTON Lat: -42.90 Lon: 147.24 Height: 1260.47 m
Data from the previous 72 hours. | See also: Recent months at Mount Wellington
Date/Time
EST
Temp
°C
App
Temp
°C
Dew
Point
Rel
Hum
%
Delta-T
°C
Wind Press
QNH
hPa
Press
MSL
hPa
Rain
since 9 am
mm
Dir
 
Spd
km/h
Gust
km/h
Spd
kts
Gust
kts
24/02:00pm 9.4 2.4 4.0 69 2.6 NW 30 39 16 21 - - 0.0
24/01:30pm 11.0 4.8 4.5 64 3.2 NNW 26 44 14 24 - - 0.0
24/01:00pm 10.5 2.6 4.6 67 2.9 NNW 35 48 19 26 - - 0.0
24/12:30pm 9.5 1.9 5.7 77 1.9 NW 35 48 19 26 - - 0.0
24/12:00pm 7.3 -1.9 5.4 88 0.9 NW 43 56 23 30 - - 0.0
24/11:30am 6.4 -3.9 4.9 90 0.7 NW 48 57 26 31 - - 0.0
24/11:00am 7.1 -1.6 3.9 80 1.5 NW 39 54 21 29 - - 0.0
24/10:30am 9.2 1.3 2.5 63 3.1 NW 33 44 18 24 - - 0.0
24/10:00am 9.5 1.1 1.4 57 3.6 WNW 35 50 19 27 - - 0.0
24/09:30am 8.8 -0.8 -1.6 48 4.3 WNW 39 46 21 25 - - 0.0
24/09:00am 8.9 -0.5 -3.0 43 4.8 WNW 37 48 20 26 - - 0.0
24/08:30am 9.6 0.1 -4.0 38 5.4 WNW 37 44 20 24 - - 0.0
24/08:00am 9.0 -0.2 -4.9 37 5.3 WNW 35 46 19 25 - - 0.0
24/07:30am 8.7 -0.9 -4.5 39 5.1 WNW 37 46 20 25 - - 0.0
24/07:00am 8.5 -0.3 -4.3 40 5.0 WNW 33 41 18 22 - - 0.0
24/06:30am 8.5 -0.7 -4.3 40 5.0 W 35 43 19 23 - - 0.0
24/06:00am 8.4 -1.6 -4.4 40 4.9 WNW 39 44 21 24 - - 0.0
24/05:30am 8.4 -1.5 -4.1 41 4.9 WNW 39 46 21 25 - - 0.0
24/05:00am 8.3 -1.3 -4.2 41 4.8 WNW 37 46 20 25 - - 0.0
24/04:30am 8.1 -1.4 -3.7 43 4.6 WNW 37 46 20 25 - - 0.0
24/04:00am 8.1 -1.0 -3.7 43 4.6 WNW 35 43 19 23 - - 0.0
24/03:30am 8.7 -1.6 -4.5 39 5.1 WNW 41 56 22 30 - - 0.0
24/03:00am 8.4 -1.8 -3.4 43 4.7 WNW 41 48 22 26 - - 0.0
24/02:30am 8.4 -1.4 -3.4 43 4.7 WNW 39 46 21 25 - - 0.0
24/02:00am 8.5 -1.4 -3.7 42 4.8 WNW 39 52 21 28 - - 0.0
24/01:30am 8.3 -1.1 -2.9 45 4.5 WNW 37 48 20 26 - - 0.0
24/01:00am 8.1 -1.3 -3.1 45 4.4 WNW 37 44 20 24 - - 0.0
24/12:30am 7.6 -1.4 -2.4 49 4.0 WNW 35 44 19 24 - - 0.0
24/12:00am 7.7 -1.2 -2.0 50 3.9 WNW 35 44 19 24 - - 0.0
 
Date/Time
EST
Temp
°C
App
Temp
°C
Dew
Point
Rel
Hum
%
Delta-T
°C
Wind Press
QNH
hPa
Press
MSL
hPa
Rain
since 9 am
mm
Dir
 
Spd
km/h
Gust
km/h
Spd
kts
Gust
kts
23/11:30pm 8.0 -1.3 -1.8 50 4.0 WNW 37 46 20 25 - - 0.0
23/11:00pm 8.3 -0.2 -2.0 48 4.2 WNW 33 44 18 24 - - 0.0
23/10:30pm 8.7 0.2 -2.0 47 4.4 WNW 33 43 18 23 - - 0.0
23/10:00pm 9.5 -0.3 -3.1 41 5.1 NW 39 46 21 25 - - 0.0
23/09:30pm 9.6 0.2 -3.3 40 5.2 NW 37 48 20 26 - - 0.0
23/09:00pm 9.7 -0.2 -3.6 39 5.3 NW 39 54 21 29 - - 0.0
23/08:30pm 9.7 -0.2 -4.3 37 5.5 WNW 39 48 21 26 - - 0.0
23/08:00pm 10.0 0.4 -5.1 34 5.8 WNW 37 50 20 27 - - 0.0
23/07:30pm 10.2 1.4 -4.2 36 5.7 WNW 33 46 18 25 - - 0.0
23/07:00pm 10.3 4.2 -2.0 42 5.1 NW 20 28 11 15 - - 0.0
23/06:30pm 10.8 4.4 -1.9 41 5.3 NW 22 30 12 16 - - 0.0
23/06:00pm 11.1 5.2 -2.0 40 5.5 NW 19 26 10 14 - - 0.0
23/05:30pm 11.9 6.0 -1.9 38 5.9 WNW 19 24 10 13 - - 0.0
23/05:00pm 12.9 7.3 -2.6 34 6.5 NW 17 24 9 13 - - 0.0
23/04:30pm 13.5 8.0 -2.0 34 6.7 NW 17 22 9 12 - - 0.0
23/04:00pm 13.8 8.7 -1.8 34 6.8 NNW 15 22 8 12 - - 0.0
23/03:30pm 14.7 9.2 -1.8 32 7.2 NW 17 26 9 14 - - 0.0
23/03:00pm 15.0 8.9 -2.4 30 7.5 WNW 20 30 11 16 - - 0.0
23/02:30pm 14.4 7.0 -3.9 28 7.6 W 26 37 14 20 - - 0.0
23/02:00pm 14.5 7.0 -4.2 27 7.7 W 26 35 14 19 - - 0.0
23/01:30pm 14.5 7.8 -3.8 28 7.6 W 22 37 12 20 - - 0.0
23/12:30pm 13.5 4.1 -6.1 25 7.7 W 35 48 19 26 - - 0.0
23/12:00pm 12.7 3.0 -5.8 27 7.3 W 37 48 20 26 - - 0.0
23/11:30am 11.9 3.0 -5.5 29 6.8 W 33 59 18 32 - - 0.0
23/11:02am 12.4 3.1 -9.3 21 7.8 W 33 52 18 28 - - 0.0
23/11:00am 12.7 3.5 -8.4 22 7.8 W 33 44 18 24 - - 0.0
23/10:37am 11.8 2.1 -10.4 20 7.8 W 35 56 19 30 - - 0.0
23/10:30am 11.7 1.1 -12.5 17 8.1 W 39 56 21 30 - - 0.0
23/10:00am 11.3 0.9 -9.0 23 7.3 W 39 54 21 29 - - 0.0
23/09:30am 11.6 1.0 -11.9 18 7.9 W 39 54 21 29 - - 0.0
23/09:00am 11.0 -0.1 -13.8 16 8.0 W 41 56 22 30 - - 0.0
23/08:30am 10.4 -1.1 -15.1 15 7.9 W 43 54 23 29 - - 0.0
23/08:17am 10.3 -1.0 -16.9 13 8.1 W 41 59 22 32 - - 0.0
23/08:00am 9.8 -2.5 -18.2 12 8.0 W 46 63 25 34 - - 0.0
23/07:30am 9.3 -2.1 -19.6 11 7.9 W 41 56 22 30 - - 0.0
23/07:00am 8.6 -1.5 -17.3 14 7.4 W 35 44 19 24 - - 0.0
23/06:36am 10.1 -2.7 -24.1 7 8.6 W 48 67 26 36 - - 0.0
23/06:30am 9.4 -3.1 -24.6 7 8.4 W 46 57 25 31 - - 0.0
23/06:09am 9.6 -1.9 -23.0 8 8.3 W 41 59 22 32 - - 0.0
23/06:00am 9.9 -2.9 -24.3 7 8.5 W 48 59 26 32 - - 0.0
23/05:30am 9.7 -1.4 -24.4 7 8.5 W 39 52 21 28 - - 0.0
23/05:00am 9.6 -1.5 -23.0 8 8.3 W 39 48 21 26 - - 0.0
23/04:30am 9.5 -1.1 -19.5 11 8.0 W 37 50 20 27 - - 0.0
23/04:00am 8.4 -2.0 -15.2 17 7.1 W 37 44 20 24 - - 0.0
23/03:30am 8.9 -1.2 -16.3 15 7.4 WNW 35 46 19 25 - - 0.0
23/03:00am 7.3 -2.1 -14.1 20 6.5 W 32 37 17 20 - - 0.0
23/02:30am 7.8 -2.2 -15.0 18 6.8 W 35 52 19 28 - - 0.0
23/02:00am 7.2 -3.1 -12.5 23 6.2 W 37 46 20 25 - - 0.0
23/01:30am 6.9 -3.0 -12.2 24 6.0 W 35 44 19 24 - - 0.0
23/01:00am 7.3 -3.3 -11.9 24 6.1 W 39 52 21 28 - - 0.0
23/12:30am 7.5 -3.2 -14.0 20 6.5 W 39 54 21 29 - - 0.0
23/12:00am 7.6 -1.8 -13.9 20 6.5 W 32 41 17 22 - - 0.0
 
Date/Time
EST
Temp
°C
App
Temp
°C
Dew
Point
Rel
Hum
%
Delta-T
°C
Wind Press
QNH
hPa
Press
MSL
hPa
Rain
since 9 am
mm
Dir
 
Spd
km/h
Gust
km/h
Spd
kts
Gust
kts
22/11:30pm 7.5 -2.5 -14.6 19 6.6 W 35 44 19 24 - - 0.0
22/11:00pm 7.3 -3.4 -13.5 21 6.4 W 39 46 21 25 - - 0.0
22/10:30pm 7.4 -2.4 -11.8 24 6.1 W 35 44 19 24 - - 0.0
22/10:00pm 8.0 -0.5 -11.3 24 6.3 W 28 41 15 22 - - 0.0
22/09:30pm 8.1 -0.6 -8.8 29 5.9 W 30 43 16 23 - - 0.0
22/09:00pm 8.3 -0.7 -8.7 29 5.9 W 32 43 17 23 - - 0.0
22/08:30pm 8.9 -1.1 -8.6 28 6.2 W 37 48 20 26 - - 0.0
22/08:00pm 8.9 -0.5 -6.5 33 5.7 W 35 43 19 23 - - 0.0
22/07:30pm 9.3 -0.8 -5.7 34 5.7 W 39 50 21 27 - - 0.0
22/07:00pm 9.6 -0.5 -5.5 34 5.8 W 39 54 21 29 - - 0.0
22/06:30pm 9.7 1.5 -4.3 37 5.5 WNW 30 39 16 21 - - 0.0
22/06:00pm 10.3 2.0 -5.2 33 6.0 WNW 30 37 16 20 - - 0.0
22/05:30pm 11.3 4.9 -5.2 31 6.5 WNW 20 28 11 15 - - 0.0
22/05:00pm 12.4 4.9 -4.7 30 6.9 NW 26 32 14 17 - - 0.0
22/04:30pm 13.3 7.2 -2.6 33 6.7 NW 20 33 11 18 - - 0.0
22/04:00pm 13.9 8.1 -0.2 38 6.3 WNW 20 30 11 16 - - 0.0
22/03:30pm 13.8 7.0 -1.8 34 6.8 WNW 24 35 13 19 - - 0.0
22/03:00pm 15.0 8.7 -1.1 33 7.2 NW 22 39 12 21 - - 0.0
22/02:30pm 14.9 9.2 -0.8 34 7.0 NW 19 33 10 18 - - 0.0
22/02:00pm 15.3 9.1 -0.1 35 7.0 NW 22 37 12 20 - - 0.0
22/01:30pm 14.6 8.0 -0.7 35 6.8 WNW 24 37 13 20 - - 0.0
22/01:00pm 14.1 7.4 -1.1 35 6.7 WNW 24 33 13 18 - - 0.0
22/12:30pm 13.4 5.7 -2.9 32 6.9 WNW 28 35 15 19 - - 0.0
22/12:00pm 13.3 4.7 -3.9 30 7.1 WNW 32 39 17 21 - - 0.0
22/11:30am 13.6 4.2 -6.6 24 7.9 WNW 35 52 19 28 - - 0.0
22/11:00am 13.4 3.2 -6.7 24 7.8 WNW 39 50 21 27 - - 0.0
22/10:30am 13.1 2.5 -7.5 23 7.8 WNW 41 56 22 30 - - 0.0
22/10:00am 12.7 1.6 -8.4 22 7.8 WNW 43 52 23 28 - - 0.0
22/09:30am 12.4 2.1 -8.1 23 7.6 WNW 39 48 21 26 - - 0.0
22/09:00am 12.5 2.1 -9.8 20 8.0 WNW 39 48 21 26 - - 0.0
22/08:30am 11.9 1.2 -13.1 16 8.2 WNW 39 50 21 27 - - 0.0
22/08:00am 11.0 0.5 -16.3 13 8.3 WNW 37 44 20 24 - - 0.0
22/07:30am 10.2 0.7 -16.1 14 7.9 WNW 32 39 17 21 - - 0.0
22/07:00am 9.7 0.4 -19.3 11 8.1 WNW 30 35 16 19 - - 0.0
22/06:30am 9.9 0.4 -26.0 6 8.6 NW 30 35 16 19 - - 0.0
22/06:00am 9.5 0.0 -26.3 6 8.5 NW 30 35 16 19 - - 0.0
22/05:30am 9.3 0.6 -26.4 6 8.4 NW 26 33 14 18 - - 0.0
22/05:00am 8.7 0.0 -26.8 6 8.2 NW 26 30 14 16 - - 0.0
22/04:30am 8.5 0.2 -25.3 7 8.0 WNW 24 30 13 16 - - 0.0
22/04:00am 7.5 -1.1 -22.1 10 7.4 WNW 26 28 14 15 - - 0.0
22/03:30am 8.1 -0.2 -24.1 8 7.8 NW 24 28 13 15 - - 0.0
22/03:00am 7.4 0.1 -22.2 10 7.4 WNW 19 22 10 12 - - 0.0
22/02:30am 7.7 0.8 -24.4 8 7.7 WNW 17 19 9 10 - - 0.0
22/02:00am 7.5 1.0 -21.0 11 7.3 WNW 15 19 8 10 - - 0.0
22/01:30am 7.8 1.6 -23.1 9 7.6 WNW 13 19 7 10 - - 0.0
22/01:00am 8.0 1.8 -24.2 8 7.8 W 13 19 7 10 - - 0.0
22/12:30am 8.3 3.0 -21.5 10 7.7 WNW 9 17 5 9 - - 0.0
22/12:00am 6.6 0.3 -16.0 18 6.4 W 15 17 8 9 - - 0.0
 
Date/Time
EST
Temp
°C
App
Temp
°C
Dew
Point
Rel
Hum
%
Delta-T
°C
Wind Press
QNH
hPa
Press
MSL
hPa
Rain
since 9 am
mm
Dir
 
Spd
km/h
Gust
km/h
Spd
kts
Gust
kts
21/11:30pm 6.1 0.0 -12.9 24 5.8 WNW 15 19 8 10 - - 0.0
21/11:00pm 5.9 -0.9 -12.1 26 5.6 NW 19 22 10 12 - - 0.0
21/10:30pm 5.4 -0.9 -10.3 31 5.0 WNW 17 20 9 11 - - 0.0
21/10:00pm 5.1 -0.8 -9.4 34 4.8 WNW 15 17 8 9 - - 0.0
21/09:30pm 4.8 -0.6 -8.3 38 4.4 WNW 13 15 7 8 - - 0.0
21/09:00pm 3.8 -1.6 -4.6 54 3.1 W 15 17 8 9 - - 0.0
21/08:30pm 4.6 0.1 -6.6 44 3.9 WSW 9 11 5 6 - - 0.0
21/08:00pm 5.2 -0.1 -7.6 39 4.4 SW 13 17 7 9 - - 0.0
21/07:30pm 5.0 -1.2 -5.1 48 3.7 SW 19 20 10 11 - - 0.0
21/07:00pm 5.3 -1.0 -3.7 52 3.4 SW 20 22 11 12 - - 0.0
21/06:30pm 5.4 -1.8 -2.4 57 3.1 SW 26 30 14 16 - - 0.0
21/06:00pm 6.2 -1.3 -1.2 59 3.0 SW 28 30 15 16 - - 0.0
21/05:30pm 7.1 0.0 -1.1 56 3.4 SW 26 30 14 16 - - 0.0
21/05:00pm 8.1 2.3 0.1 57 3.4 SW 20 26 11 14 - - 0.0
21/04:30pm 8.3 3.2 0.5 58 3.4 WSW 17 22 9 12 - - 0.0
21/04:00pm 8.8 2.0 -2.2 46 4.5 WSW 24 30 13 16 - - 0.0
21/03:30pm 9.1 2.1 -0.2 52 4.0 WSW 26 33 14 18 - - 0.0
21/03:00pm 9.5 3.6 -0.9 48 4.4 WSW 20 28 11 15 - - 0.0
21/02:30pm 9.7 2.6 -1.1 47 4.6 WSW 26 33 14 18 - - 0.0

Other Formats:

Comma delimited format used in spreadsheet applications
http://www.bom.gov.au/fwo/IDT60801/IDT60801.95979.axf

JavaScript Object Notation format (JSON) in row-major order
http://www.bom.gov.au/fwo/IDT60801/IDT60801.95979.json